Auburn, New York
Current Conditions -  °F | °C
As of 6:54 PM on Friday 24 Oct 2014 (Local Time) from KSYR Reporting Station
Scattered Clouds Scattered Clouds  
Wind Chill: 51°   Ceiling: Unl
Heat Index: 51°   Visibility: 10mi
Dew Point: 33°   Wind: 3mph
Humidity: 50%   Direction: 290°WNW
Pressure: 29.91"   Gusts: NA
Location:  42.93°N, 76.56°W
Report Text: KSYR 242254Z 29003KT 10SM FEW040 SCT250 11/01 A2991 RMK AO2 SLP126 SCT V BKN T01060006
Loading
Personal Weather Stations






























Interactive Weather Map
Tropical Storm Tracking
New forecast layout! Learn more

10-Day Weather Forecast

Advertisements
Track Severe Weather on mobile